createdAt,value
2018-03-07T00:00:49.411Z,39.30
2018-03-07T00:03:17.224Z,37.70
2018-03-07T00:05:45.066Z,36.23
2018-03-07T00:08:12.701Z,39.70
2018-03-07T00:10:40.277Z,38.80
2018-03-07T00:13:07.921Z,35.83
2018-03-07T00:15:35.775Z,36.67
2018-03-07T00:18:03.357Z,36.80
2018-03-07T00:20:31.218Z,37.57
2018-03-07T00:22:58.999Z,36.87
2018-03-07T00:25:26.674Z,37.93
2018-03-07T00:27:54.409Z,37.30
2018-03-07T00:30:22.126Z,37.83
2018-03-07T00:32:49.769Z,39.33
2018-03-07T00:35:17.342Z,38.20
2018-03-07T00:37:44.915Z,37.70
2018-03-07T00:40:12.837Z,38.20
2018-03-07T00:42:40.497Z,40.23
2018-03-07T00:45:08.174Z,41.10
2018-03-07T00:47:35.779Z,38.23
2018-03-07T00:50:03.428Z,38.90
2018-03-07T00:52:31.199Z,39.10
2018-03-07T00:54:58.945Z,40.47
2018-03-07T00:57:26.518Z,39.27
2018-03-07T00:59:54.147Z,39.00
2018-03-07T01:02:21.801Z,41.33
2018-03-07T01:04:50.463Z,39.13
2018-03-07T01:07:18.182Z,39.40
2018-03-07T01:09:45.952Z,37.60
2018-03-07T01:12:13.739Z,38.57
2018-03-07T01:14:41.577Z,39.00
2018-03-07T01:17:09.186Z,40.50
2018-03-07T01:19:36.965Z,38.33
2018-03-07T01:22:04.632Z,39.60
2018-03-07T01:24:32.371Z,37.33
2018-03-07T01:26:59.974Z,38.70
2018-03-07T01:29:27.774Z,40.33
2018-03-07T01:31:55.348Z,38.17
2018-03-07T01:34:23.093Z,39.17
2018-03-07T01:36:50.786Z,36.37
2018-03-07T01:39:18.464Z,39.67
2018-03-07T01:41:46.150Z,40.03
2018-03-07T01:44:13.932Z,38.70
2018-03-07T01:46:41.596Z,42.33
2018-03-07T01:49:09.333Z,41.57
2018-03-07T01:51:48.711Z,40.33
2018-03-07T01:54:16.510Z,39.23
2018-03-07T01:56:44.121Z,42.00
2018-03-07T01:59:11.799Z,42.40
2018-03-07T02:01:39.517Z,43.77
2018-03-07T02:04:07.207Z,44.73
2018-03-07T02:06:34.950Z,46.17
2018-03-07T02:09:02.692Z,44.83
2018-03-07T02:11:30.336Z,47.70
2018-03-07T02:13:58.120Z,44.33
2018-03-07T02:16:25.763Z,47.60
2018-03-07T02:18:53.336Z,41.90
2018-03-07T02:21:21.148Z,41.67
2018-03-07T02:23:48.820Z,42.90
2018-03-07T02:26:16.602Z,39.70
2018-03-07T02:28:44.450Z,41.93
2018-03-07T02:31:12.137Z,41.47
2018-03-07T02:33:39.930Z,45.43
2018-03-07T02:36:19.350Z,51.50
2018-03-07T02:38:46.948Z,48.90
2018-03-07T02:41:14.637Z,46.67
2018-03-07T02:43:42.394Z,45.33
2018-03-07T02:46:10.078Z,44.70
2018-03-07T02:48:37.757Z,43.93
2018-03-07T02:51:05.399Z,43.80
2018-03-07T02:53:33.162Z,41.73
2018-03-07T02:56:00.885Z,40.50
2018-03-07T02:58:28.554Z,39.80
2018-03-07T03:00:56.233Z,40.47
2018-03-07T03:03:24.020Z,37.20
2018-03-07T03:05:51.687Z,39.43
2018-03-07T03:08:19.337Z,42.70
2018-03-07T03:10:46.944Z,43.57
2018-03-07T03:13:14.525Z,39.80
2018-03-07T03:15:42.178Z,38.20
2018-03-07T03:18:09.956Z,42.20
2018-03-07T03:20:37.635Z,39.03
2018-03-07T03:23:05.332Z,40.10
2018-03-07T03:25:33.092Z,37.30
2018-03-07T03:28:00.757Z,40.27
2018-03-07T03:30:28.342Z,43.40
2018-03-07T03:32:56.009Z,47.00
2018-03-07T03:35:23.699Z,44.27
2018-03-07T03:37:51.289Z,43.77
2018-03-07T03:40:19.047Z,40.17
2018-03-07T03:42:46.635Z,41.20
2018-03-07T03:45:14.204Z,44.53
2018-03-07T03:47:41.971Z,42.87
2018-03-07T03:50:09.568Z,40.07
2018-03-07T03:52:37.218Z,41.10
2018-03-07T03:55:04.898Z,46.23
2018-03-07T03:57:32.636Z,45.60
2018-03-07T04:00:00.456Z,43.43
2018-03-07T04:02:28.171Z,42.47
2018-03-07T04:04:55.803Z,44.87
2018-03-07T04:07:23.421Z,44.43
2018-03-07T04:09:51.260Z,44.60
2018-03-07T04:12:19.140Z,46.23
2018-03-07T04:14:46.915Z,43.33
2018-03-07T04:17:14.594Z,43.97
2018-03-07T04:19:42.360Z,46.40
2018-03-07T04:22:09.946Z,36.53
2018-03-07T04:24:37.668Z,49.70
2018-03-07T04:27:05.326Z,56.30
2018-03-07T04:29:33.024Z,51.00
2018-03-07T04:32:00.848Z,60.70
2018-03-07T04:34:28.587Z,57.17
2018-03-07T04:36:56.298Z,63.40
2018-03-07T04:39:23.975Z,70.53
2018-03-07T04:41:51.759Z,82.53
2018-03-07T04:44:19.428Z,81.63
2018-03-07T04:46:47.023Z,116.50
2018-03-07T04:49:14.760Z,88.57
2018-03-07T04:51:42.528Z,91.93
2018-03-07T04:54:10.158Z,89.03
2018-03-07T04:56:38.015Z,92.77
2018-03-07T04:59:05.749Z,92.83
2018-03-07T05:01:33.448Z,94.90
2018-03-07T05:04:01.247Z,86.70
2018-03-07T05:06:28.842Z,85.40
2018-03-07T05:08:56.481Z,77.47
2018-03-07T05:11:24.274Z,82.07
2018-03-07T05:13:52.050Z,90.40
2018-03-07T05:16:19.791Z,74.20
2018-03-07T05:18:47.408Z,67.60
2018-03-07T05:21:15.075Z,67.70
2018-03-07T05:23:42.914Z,76.07
2018-03-07T05:26:10.630Z,64.73
2018-03-07T05:28:38.410Z,65.53
2018-03-07T05:31:06.081Z,63.93
2018-03-07T05:33:33.970Z,62.53
2018-03-07T05:36:01.847Z,65.73
2018-03-07T05:38:29.630Z,64.47
2018-03-07T05:40:57.273Z,58.77
2018-03-07T05:43:24.926Z,62.90
2018-03-07T05:45:52.750Z,60.13
2018-03-07T05:48:20.535Z,58.20
2018-03-07T05:50:48.303Z,61.10
2018-03-07T05:53:16.086Z,59.73
2018-03-07T05:55:43.699Z,57.73
2018-03-07T05:58:11.544Z,56.77
2018-03-07T06:00:39.212Z,55.63
2018-03-07T06:03:06.878Z,52.70
2018-03-07T06:05:34.496Z,50.10
2018-03-07T06:08:02.347Z,48.83
2018-03-07T06:10:30.012Z,53.90
2018-03-07T06:12:57.740Z,60.70
2018-03-07T06:15:25.463Z,56.50
2018-03-07T06:17:53.145Z,56.53
2018-03-07T06:20:20.791Z,52.43
2018-03-07T06:22:48.493Z,55.30
2018-03-07T06:25:16.282Z,51.73
2018-03-07T06:27:44.165Z,49.07
2018-03-07T06:30:11.883Z,53.10
2018-03-07T06:32:39.461Z,53.27
2018-03-07T06:35:07.285Z,53.80
2018-03-07T06:37:35.163Z,51.97
2018-03-07T06:40:03.048Z,48.60
2018-03-07T06:42:30.724Z,45.90
2018-03-07T06:44:58.390Z,45.30
2018-03-07T06:47:26.178Z,44.93
2018-03-07T06:49:54.059Z,45.57
2018-03-07T06:52:21.718Z,48.47
2018-03-07T06:54:49.308Z,43.17
2018-03-07T06:57:16.949Z,41.63
2018-03-07T06:59:44.528Z,45.50
2018-03-07T07:02:12.124Z,45.10
2018-03-07T07:04:39.799Z,48.77
2018-03-07T07:07:07.476Z,54.03
2018-03-07T07:09:35.143Z,45.47
2018-03-07T07:12:02.918Z,45.00
2018-03-07T07:14:30.608Z,46.23
2018-03-07T07:16:58.438Z,47.10
2018-03-07T07:19:26.114Z,43.63
2018-03-07T07:21:53.699Z,48.53
2018-03-07T07:24:21.566Z,59.73
2018-03-07T07:26:49.262Z,55.80
2018-03-07T07:29:16.951Z,56.00
2018-03-07T07:31:44.630Z,59.90
2018-03-07T07:34:12.300Z,59.67
2018-03-07T07:36:40.097Z,65.03
2018-03-07T07:39:07.747Z,56.97
2018-03-07T07:41:35.319Z,65.23
2018-03-07T07:44:03.012Z,61.30
2018-03-07T07:46:30.794Z,62.60
2018-03-07T07:48:58.425Z,68.37
2018-03-07T07:51:26.036Z,73.90
2018-03-07T07:53:53.821Z,74.43
2018-03-07T07:56:21.500Z,67.60
2018-03-07T07:58:49.085Z,73.60
2018-03-07T08:01:16.740Z,70.77
2018-03-07T08:03:44.418Z,66.27
2018-03-07T08:06:12.070Z,69.13
2018-03-07T08:08:39.658Z,73.47
2018-03-07T08:11:07.449Z,55.43
2018-03-07T08:13:35.092Z,57.70
2018-03-07T08:16:02.762Z,67.30
2018-03-07T08:18:30.581Z,73.07
2018-03-07T08:20:58.459Z,68.37
2018-03-07T08:23:26.029Z,56.40
2018-03-07T08:25:53.622Z,68.33
2018-03-07T08:28:22.164Z,63.87
2018-03-07T08:30:49.940Z,61.90
2018-03-07T08:33:17.764Z,59.37
2018-03-07T08:35:45.452Z,55.80
2018-03-07T08:38:13.319Z,57.57
2018-03-07T08:40:40.987Z,50.57
2018-03-07T08:43:08.664Z,56.77
2018-03-07T08:45:36.237Z,56.90
2018-03-07T08:48:04.016Z,53.27
2018-03-07T08:50:31.691Z,51.43
2018-03-07T08:52:59.473Z,49.37
2018-03-07T08:55:27.139Z,49.70
2018-03-07T08:57:54.810Z,52.17
2018-03-07T09:00:22.393Z,51.10
2018-03-07T09:02:49.977Z,52.57
2018-03-07T09:05:17.698Z,52.47
2018-03-07T09:07:45.302Z,62.50
2018-03-07T09:10:12.957Z,63.80
2018-03-07T09:12:40.666Z,67.27
2018-03-07T09:15:08.451Z,53.00
2018-03-07T09:17:36.081Z,50.60
2018-03-07T09:20:03.787Z,58.50
2018-03-07T09:22:31.585Z,48.30
2018-03-07T09:24:59.225Z,53.50
2018-03-07T09:27:27.033Z,45.83
2018-03-07T09:29:54.706Z,34.50
2018-03-07T09:32:22.341Z,31.60
2018-03-07T09:34:50.015Z,34.23
2018-03-07T09:37:17.604Z,34.57
2018-03-07T09:39:45.411Z,32.13
2018-03-07T09:42:12.985Z,24.83
2018-03-07T09:44:40.759Z,30.77
2018-03-07T09:47:08.427Z,26.03
2018-03-07T09:49:36.165Z,18.30
2018-03-07T09:52:03.766Z,18.23
2018-03-07T09:54:32.181Z,17.77
2018-03-07T09:56:59.860Z,21.20
2018-03-07T09:59:27.535Z,21.20
2018-03-07T10:01:55.335Z,21.53
2018-03-07T10:04:23.086Z,20.57
2018-03-07T10:06:50.698Z,22.17
2018-03-07T10:09:18.333Z,20.67
2018-03-07T10:11:46.116Z,19.60
2018-03-07T10:14:13.894Z,17.93
2018-03-07T10:16:41.548Z,18.37
2018-03-07T10:19:09.289Z,20.53
2018-03-07T10:21:36.901Z,16.90
2018-03-07T10:24:04.533Z,17.30
2018-03-07T10:26:32.161Z,19.73
2018-03-07T10:28:59.753Z,16.23
2018-03-07T10:31:27.415Z,16.80
2018-03-07T10:33:55.089Z,14.77
2018-03-07T10:36:22.871Z,20.37
2018-03-07T10:38:50.641Z,21.83
2018-03-07T10:41:18.311Z,20.37
2018-03-07T10:43:45.992Z,25.13
2018-03-07T10:46:13.604Z,21.43
2018-03-07T10:48:41.248Z,21.23
2018-03-07T10:51:08.917Z,19.27
2018-03-07T10:53:36.488Z,17.57
2018-03-07T10:56:04.274Z,16.63
2018-03-07T10:58:32.153Z,16.63
2018-03-07T11:00:59.745Z,16.77
2018-03-07T11:03:27.342Z,18.80
2018-03-07T11:05:55.966Z,21.33
2018-03-07T11:08:23.555Z,21.07
2018-03-07T11:10:51.234Z,17.63
2018-03-07T11:13:18.911Z,18.50
2018-03-07T11:15:46.806Z,20.10
2018-03-07T11:18:17.346Z,19.20
2018-03-07T11:20:45.017Z,19.23
2018-03-07T11:23:12.684Z,17.53
2018-03-07T11:25:40.295Z,16.90
2018-03-07T11:28:08.105Z,15.93
2018-03-07T11:30:35.716Z,11.77
2018-03-07T11:33:03.461Z,13.27
2018-03-07T11:35:31.175Z,14.13
2018-03-07T11:37:58.952Z,13.60
2018-03-07T11:40:26.538Z,13.20
2018-03-07T11:42:54.411Z,12.70
2018-03-07T11:45:22.074Z,13.70
2018-03-07T11:47:49.862Z,14.30
2018-03-07T11:50:17.746Z,14.87
2018-03-07T11:52:45.328Z,12.47
2018-03-07T11:55:12.980Z,12.30
2018-03-07T11:57:40.659Z,11.60
2018-03-07T12:00:08.446Z,11.40
2018-03-07T12:02:36.102Z,10.47
2018-03-07T12:05:03.792Z,10.93
2018-03-07T12:07:31.457Z,11.20
2018-03-07T12:09:59.252Z,11.30
2018-03-07T12:12:26.885Z,12.03
2018-03-07T12:14:54.592Z,11.50
2018-03-07T12:17:22.384Z,12.67
2018-03-07T12:19:50.034Z,11.63
2018-03-07T12:22:17.729Z,10.83
2018-03-07T12:24:45.393Z,11.50
2018-03-07T12:27:13.080Z,10.10
2018-03-07T12:29:40.742Z,10.50
2018-03-07T12:32:08.424Z,9.70
2018-03-07T12:34:36.073Z,9.97
2018-03-07T12:37:03.646Z,9.33
2018-03-07T12:39:31.221Z,7.90
2018-03-07T12:41:58.929Z,9.50
2018-03-07T12:44:26.549Z,10.07
2018-03-07T12:46:54.187Z,9.27
2018-03-07T12:49:21.912Z,10.00
2018-03-07T12:51:49.697Z,9.77
2018-03-07T12:54:17.395Z,8.57
2018-03-07T12:56:45.082Z,9.27
2018-03-07T12:59:12.865Z,9.97
2018-03-07T13:01:40.588Z,10.77
2018-03-07T13:04:08.216Z,9.40
2018-03-07T13:06:35.944Z,9.50
2018-03-07T13:09:03.615Z,8.80
2018-03-07T13:11:31.257Z,8.30
2018-03-07T13:13:58.971Z,8.60
2018-03-07T13:16:26.737Z,8.93
2018-03-07T13:18:54.580Z,8.80
2018-03-07T13:21:22.239Z,10.03
2018-03-07T13:23:49.846Z,9.60
2018-03-07T13:26:17.430Z,10.87
2018-03-07T13:28:45.177Z,10.33
2018-03-07T13:31:12.842Z,9.40
2018-03-07T13:33:40.627Z,10.30
2018-03-07T13:36:08.286Z,9.83
2018-03-07T13:38:36.038Z,10.00
2018-03-07T13:41:03.746Z,10.93
2018-03-07T13:43:31.435Z,10.50
2018-03-07T13:45:59.105Z,11.13
2018-03-07T13:48:26.699Z,10.60
2018-03-07T13:50:54.519Z,10.20
2018-03-07T13:53:22.136Z,11.03
2018-03-07T13:55:49.913Z,10.33
2018-03-07T13:58:17.581Z,10.00
2018-03-07T14:00:45.374Z,10.73
2018-03-07T14:03:13.046Z,11.50
2018-03-07T14:05:40.822Z,10.13
2018-03-07T14:08:08.601Z,10.17
2018-03-07T14:10:36.375Z,12.23
2018-03-07T14:13:04.156Z,9.87
2018-03-07T14:15:31.892Z,9.93
2018-03-07T14:17:59.595Z,10.50
2018-03-07T14:20:27.351Z,10.47
2018-03-07T14:22:54.925Z,11.13
2018-03-07T14:25:22.636Z,10.67
2018-03-07T14:27:50.418Z,9.60
2018-03-07T14:30:18.194Z,11.80
2018-03-07T14:32:45.847Z,9.10
2018-03-07T14:35:13.644Z,10.27
2018-03-07T14:37:41.326Z,10.33
2018-03-07T14:40:09.015Z,10.90
2018-03-07T14:42:36.692Z,11.30
2018-03-07T14:45:04.554Z,10.80
2018-03-07T14:50:06.352Z,10.90
2018-03-07T14:52:34.029Z,10.27
2018-03-07T14:55:01.699Z,10.00
2018-03-07T14:57:29.370Z,10.93
2018-03-07T14:59:57.058Z,10.97
2018-03-07T15:02:24.663Z,11.87
2018-03-07T15:04:52.304Z,10.70
2018-03-07T15:07:20.089Z,11.30
2018-03-07T15:09:47.673Z,11.53
2018-03-07T15:12:15.310Z,15.60
2018-03-07T15:14:42.999Z,24.47
2018-03-07T15:17:10.681Z,26.27
2018-03-07T15:19:38.463Z,19.27
2018-03-07T15:22:06.123Z,14.53
2018-03-07T15:24:33.811Z,13.10
2018-03-07T15:27:01.403Z,12.70
2018-03-07T15:29:29.044Z,12.73
2018-03-07T15:31:56.835Z,13.10
2018-03-07T15:34:24.576Z,13.10
2018-03-07T15:36:52.166Z,14.83
2018-03-07T15:39:19.848Z,30.97
2018-03-07T15:41:47.542Z,30.67
2018-03-07T15:44:15.209Z,30.80
2018-03-07T15:46:42.826Z,37.10
2018-03-07T15:49:10.460Z,36.50
2018-03-07T15:51:38.130Z,38.13
2018-03-07T15:54:05.703Z,39.67
2018-03-07T15:56:33.273Z,39.30
2018-03-07T15:59:00.905Z,36.00
2018-03-07T16:01:28.520Z,36.77
2018-03-07T16:03:56.318Z,36.07
2018-03-07T16:06:23.999Z,34.40
2018-03-07T16:08:51.602Z,35.20
2018-03-07T16:11:19.200Z,35.60
2018-03-07T16:13:46.864Z,32.30
2018-03-07T16:16:14.698Z,30.90
2018-03-07T16:18:42.474Z,29.10
2018-03-07T16:21:10.078Z,30.40
2018-03-07T16:23:37.927Z,29.73
2018-03-07T16:26:05.803Z,28.97
2018-03-07T16:28:33.586Z,28.00
2018-03-07T16:31:01.348Z,29.90
2018-03-07T16:33:29.142Z,21.50
2018-03-07T16:35:56.867Z,23.43
2018-03-07T16:38:24.512Z,19.23
2018-03-07T16:40:52.266Z,24.10
2018-03-07T16:43:20.020Z,25.50
2018-03-07T16:45:47.714Z,25.50
2018-03-07T16:48:15.503Z,26.20
2018-03-07T16:50:43.279Z,26.13
2018-03-07T16:53:10.951Z,27.47
2018-03-07T16:55:38.625Z,26.37
2018-03-07T16:58:06.248Z,26.70
2018-03-07T17:00:33.851Z,26.20
2018-03-07T17:03:01.495Z,27.00
2018-03-07T17:05:29.139Z,27.50
2018-03-07T17:07:56.785Z,26.63
2018-03-07T17:10:24.437Z,26.67
2018-03-07T17:12:52.038Z,28.33
2018-03-07T17:15:19.713Z,28.30
2018-03-07T17:17:47.610Z,34.27
2018-03-07T17:20:15.389Z,34.27
2018-03-07T17:22:43.047Z,28.63
2018-03-07T17:25:10.734Z,29.90
2018-03-07T17:27:38.400Z,29.90
2018-03-07T17:30:06.022Z,28.37
2018-03-07T17:32:33.744Z,29.53
2018-03-07T17:35:01.350Z,29.67
2018-03-07T17:37:29.117Z,27.87
2018-03-07T17:39:56.771Z,27.97
2018-03-07T17:42:24.566Z,29.57
2018-03-07T17:44:52.198Z,29.07
2018-03-07T17:47:19.844Z,28.17
2018-03-07T17:49:47.584Z,29.27
2018-03-07T17:52:15.149Z,29.97
2018-03-07T17:54:43.860Z,28.53
2018-03-07T17:57:11.750Z,30.03
2018-03-07T17:59:39.413Z,31.90
2018-03-07T18:02:07.027Z,30.67
2018-03-07T18:04:34.767Z,32.00
2018-03-07T18:07:02.553Z,30.60
2018-03-07T18:09:30.173Z,33.00
2018-03-07T18:11:57.757Z,32.03
2018-03-07T18:14:25.383Z,32.83
2018-03-07T18:16:53.049Z,33.10
2018-03-07T18:19:20.893Z,33.70
2018-03-07T18:21:48.500Z,33.60
2018-03-07T18:24:16.066Z,31.33
2018-03-07T18:26:43.738Z,34.87
2018-03-07T18:29:11.422Z,33.83
2018-03-07T18:31:39.116Z,35.60
2018-03-07T18:34:06.866Z,31.77
2018-03-07T18:36:34.476Z,31.50
2018-03-07T18:39:02.144Z,31.23
2018-03-07T18:41:30.009Z,30.50
2018-03-07T18:43:57.800Z,33.30
2018-03-07T18:46:25.628Z,29.67
2018-03-07T18:48:53.318Z,31.80
2018-03-07T18:51:21.120Z,33.53
2018-03-07T18:53:48.904Z,33.20
2018-03-07T18:56:16.677Z,32.10
2018-03-07T18:58:44.458Z,33.90
2018-03-07T19:01:12.136Z,35.00
2018-03-07T19:03:39.904Z,37.33
2018-03-07T19:06:07.574Z,32.80
2018-03-07T19:08:35.249Z,33.90
2018-03-07T19:11:02.992Z,35.10
2018-03-07T19:13:30.818Z,35.40
2018-03-07T19:15:58.488Z,34.47
2018-03-07T19:18:26.213Z,36.83
2018-03-07T19:20:53.831Z,34.00
2018-03-07T19:23:21.722Z,35.00
2018-03-07T19:25:49.502Z,34.23
2018-03-07T19:28:17.179Z,34.10
2018-03-07T19:30:44.772Z,36.90
2018-03-07T19:33:12.452Z,33.47
2018-03-07T19:35:40.100Z,38.57
2018-03-07T19:38:07.880Z,36.27
2018-03-07T19:40:35.862Z,39.97
2018-03-07T19:43:03.537Z,43.77
2018-03-07T19:45:31.420Z,40.67
2018-03-07T19:47:59.090Z,44.47
2018-03-07T19:50:26.861Z,41.87
2018-03-07T19:52:54.544Z,38.50
2018-03-07T19:55:22.428Z,38.47
2018-03-07T19:57:50.210Z,35.00
2018-03-07T20:00:18.106Z,32.57
2018-03-07T20:02:45.841Z,34.00
2018-03-07T20:05:13.709Z,32.70
2018-03-07T20:07:41.374Z,32.10
2018-03-07T20:10:08.995Z,29.60
2018-03-07T20:12:36.832Z,29.03
2018-03-07T20:15:04.600Z,31.17
2018-03-07T20:17:32.174Z,30.83
2018-03-07T20:19:59.962Z,29.40
2018-03-07T20:22:27.666Z,30.53
2018-03-07T20:24:55.250Z,28.33
2018-03-07T20:27:22.920Z,29.73
2018-03-07T20:29:50.646Z,25.90
2018-03-07T20:32:18.377Z,28.77
2018-03-07T20:34:46.107Z,24.47
2018-03-07T20:37:13.732Z,23.90
2018-03-07T20:39:41.511Z,27.87
2018-03-07T20:42:09.289Z,26.20
2018-03-07T20:44:37.172Z,27.50
2018-03-07T20:47:04.805Z,32.13
2018-03-07T20:49:32.414Z,31.10
2018-03-07T20:52:00.084Z,24.10
2018-03-07T20:54:27.766Z,29.20
2018-03-07T20:56:55.354Z,25.13
2018-03-07T20:59:23.013Z,24.73
2018-03-07T21:01:50.676Z,27.50
2018-03-07T21:04:18.358Z,26.37
2018-03-07T21:06:46.035Z,31.27
2018-03-07T21:09:13.822Z,38.13
2018-03-07T21:11:41.552Z,34.40
2018-03-07T21:14:09.129Z,24.50
2018-03-07T21:16:36.955Z,26.60
2018-03-07T21:19:04.568Z,24.13
2018-03-07T21:21:32.229Z,21.40
2018-03-07T21:23:59.857Z,23.70
2018-03-07T21:26:27.442Z,20.77
2018-03-07T21:28:55.333Z,19.77
2018-03-07T21:31:23.213Z,18.77
2018-03-07T21:33:50.838Z,19.53
2018-03-07T21:36:18.518Z,18.40
2018-03-07T21:38:46.228Z,20.17
2018-03-07T21:41:14.118Z,20.70
2018-03-07T21:43:41.708Z,21.67
2018-03-07T21:46:09.576Z,21.20
2018-03-07T21:48:37.352Z,22.30
2018-03-07T21:51:04.932Z,22.07
2018-03-07T21:53:32.699Z,22.00
2018-03-07T21:56:00.359Z,22.80
2018-03-07T21:58:27.942Z,21.13
2018-03-07T22:00:55.727Z,22.43
2018-03-07T22:03:23.385Z,22.67
2018-03-07T22:05:51.120Z,20.73
2018-03-07T22:08:18.801Z,21.70
2018-03-07T22:10:46.413Z,22.07
2018-03-07T22:13:14.086Z,21.40
2018-03-07T22:15:41.762Z,21.63
2018-03-07T22:18:09.453Z,23.63
2018-03-07T22:20:37.234Z,25.63
2018-03-07T22:23:04.906Z,21.93
2018-03-07T22:25:32.575Z,22.40
2018-03-07T22:28:00.324Z,23.00
2018-03-07T22:30:27.965Z,22.30
2018-03-07T22:32:55.538Z,25.17
2018-03-07T22:35:23.116Z,24.90
2018-03-07T22:37:50.765Z,23.87
2018-03-07T22:40:18.534Z,26.87
2018-03-07T22:42:46.113Z,27.03
2018-03-07T22:45:13.886Z,30.80
2018-03-07T22:47:41.552Z,28.53
2018-03-07T22:50:09.244Z,31.27
2018-03-07T22:52:36.899Z,30.17
2018-03-07T22:55:04.795Z,28.37
2018-03-07T22:57:32.571Z,26.00
2018-03-07T23:00:00.160Z,30.07
2018-03-07T23:02:28.005Z,31.80
2018-03-07T23:04:55.653Z,28.60
2018-03-07T23:07:23.224Z,28.90
2018-03-07T23:09:51.053Z,30.13
2018-03-07T23:12:18.624Z,28.73
2018-03-07T23:14:46.306Z,31.40
2018-03-07T23:17:13.970Z,30.90
2018-03-07T23:19:41.554Z,29.10
2018-03-07T23:22:09.212Z,30.03
2018-03-07T23:24:37.004Z,31.60
2018-03-07T23:27:04.581Z,29.70
2018-03-07T23:29:32.240Z,32.17
2018-03-07T23:31:59.977Z,34.07
2018-03-07T23:34:27.601Z,33.67
2018-03-07T23:36:55.484Z,28.00
2018-03-07T23:39:23.263Z,34.87
2018-03-07T23:41:50.861Z,31.23
2018-03-07T23:44:18.512Z,32.80
2018-03-07T23:46:46.084Z,33.17
2018-03-07T23:49:13.967Z,35.47
2018-03-07T23:51:41.844Z,33.70
2018-03-07T23:54:09.512Z,35.53
2018-03-07T23:56:37.186Z,38.03
2018-03-07T23:59:04.899Z,36.67
